Time;durP1;ratioP1;P1;durP2;ratioP2;P2;SDS_P1;SDS_P2;PMS_P1;PMS_P2;Temp;Humidity;BMP_temperature;BMP_pressure;BME280_temperature;BME280_humidity;BME280_pressure;Samples;Min_cycle;Max_cycle;Signal;HPM_P1;HPM_P2
2022/01/06 00:00:30;;;;;;;17.35;4.53;;;4.70;86.80;;;;;;5022917;28;20072;-79
2022/01/06 00:02:56;;;;;;;18.90;4.40;;;4.70;86.90;;;;;;5025690;28;20033;-78
2022/01/06 00:05:22;;;;;;;16.52;4.90;;;4.70;87.00;;;;;;5022973;28;20053;-77
2022/01/06 00:07:48;;;;;;;21.52;4.72;;;4.70;87.00;;;;;;5026015;28;20097;-74
2022/01/06 00:10:14;;;;;;;19.92;5.60;;;4.70;87.00;;;;;;5024915;28;20087;-77
2022/01/06 00:13:03;;;;;;;16.95;5.53;;;4.70;86.90;;;;;;5027170;28;20045;-83
2022/01/06 00:23:31;;;;;;;19.50;5.88;;;4.70;86.90;;;;;;5022700;28;20048;-76
2022/01/06 00:25:58;;;;;;;17.40;5.95;;;4.70;87.00;;;;;;5025068;28;20033;-77
2022/01/06 00:28:25;;;;;;;19.17;5.93;;;4.70;87.00;;;;;;5026013;28;20041;-76
2022/01/06 00:30:50;;;;;;;18.10;5.20;;;4.60;87.10;;;;;;5031874;28;20061;-81
2022/01/06 00:33:17;;;;;;;23.15;5.72;;;4.60;87.30;;;;;;5025068;28;20500;-81
2022/01/06 00:35:42;;;;;;;14.90;5.20;;;4.50;87.40;;;;;;5021328;28;20042;-77
2022/01/06 00:38:08;;;;;;;17.38;5.00;;;4.40;87.50;;;;;;5025515;28;20041;-74
2022/01/06 00:40:36;;;;;;;20.20;5.43;;;4.40;87.50;;;;;;5025825;28;20033;-74
2022/01/06 00:43:03;;;;;;;18.60;6.55;;;4.40;87.50;;;;;;5022359;28;20049;-75
2022/01/06 00:45:30;;;;;;;20.77;5.63;;;4.30;87.50;;;;;;5022824;28;20037;-72
2022/01/06 00:47:55;;;;;;;14.32;5.65;;;4.30;87.60;;;;;;5026683;28;20030;-77
2022/01/06 00:50:21;;;;;;;18.92;5.88;;;4.20;87.70;;;;;;5025280;28;20033;-79
2022/01/06 00:52:47;;;;;;;22.95;6.03;;;4.20;87.60;;;;;;5026399;28;20037;-81
2022/01/06 00:55:12;;;;;;;20.13;5.53;;;4.20;87.80;;;;;;5025788;28;20033;-74
2022/01/06 00:57:38;;;;;;;20.65;5.25;;;4.20;87.90;;;;;;5024227;28;20045;-82
2022/01/06 01:00:05;;;;;;;14.10;5.28;;;4.10;87.90;;;;;;5025024;28;20036;-72
2022/01/06 01:02:31;;;;;;;22.98;6.15;;;4.10;88.00;;;;;;5006320;28;20029;-79
2022/01/06 01:04:56;;;;;;;16.42;5.45;;;4.10;88.10;;;;;;5025718;28;20493;-81
2022/01/06 01:07:22;;;;;;;24.10;6.53;;;4.10;88.10;;;;;;5022892;28;20038;-75
2022/01/06 01:09:48;;;;;;;18.42;5.13;;;4.00;88.20;;;;;;5020590;28;20025;-76
2022/01/06 01:12:13;;;;;;;18.13;5.55;;;4.00;88.30;;;;;;5018634;28;20076;-78
2022/01/06 01:14:52;;;;;;;23.77;5.07;;;4.00;88.40;;;;;;5019176;28;20505;-76
2022/01/06 01:17:18;;;;;;;22.35;5.57;;;4.00;88.40;;;;;;5021914;28;20041;-76
2022/01/06 01:19:44;;;;;;;22.40;5.40;;;3.90;88.50;;;;;;5025004;28;20034;-80
2022/01/06 01:22:10;;;;;;;18.40;5.88;;;3.90;88.40;;;;;;5016798;28;20045;-77
2022/01/06 01:24:35;;;;;;;18.70;5.45;;;3.80;88.50;;;;;;5026186;28;20064;-85
2022/01/06 01:27:01;;;;;;;23.25;5.85;;;3.80;88.60;;;;;;5023901;28;20043;-77
2022/01/06 01:29:29;;;;;;;20.55;6.45;;;3.80;88.70;;;;;;5013105;28;20041;-76
2022/01/06 01:31:56;;;;;;;22.00;5.47;;;3.80;88.80;;;;;;5010883;28;20109;-79
2022/01/06 01:34:25;;;;;;;19.75;6.82;;;3.70;88.90;;;;;;5019471;28;20559;-74
2022/01/06 01:36:52;;;;;;;21.65;5.38;;;3.70;89.00;;;;;;5025071;28;20117;-85
2022/01/06 01:39:18;;;;;;;25.75;6.18;;;3.70;89.10;;;;;;5026972;28;20479;-80
2022/01/06 01:41:44;;;;;;;22.48;6.10;;;3.70;89.20;;;;;;5019927;28;20033;-74
2022/01/06 01:44:15;;;;;;;21.75;5.65;;;3.60;89.20;;;;;;5021403;28;20041;-74
2022/01/06 01:46:45;;;;;;;25.83;6.95;;;3.60;89.30;;;;;;5023509;28;20034;-74
2022/01/06 01:49:46;;;;;;;24.85;6.55;;;3.60;89.40;;;;;;5019907;28;20472;-88
2022/01/06 01:52:03;;;;;;;20.38;6.82;;;3.60;89.40;;;;;;5018427;28;20439;-74
2022/01/06 01:54:28;;;;;;;19.77;5.35;;;3.60;89.60;;;;;;5018646;28;20423;-74
2022/01/06 01:56:54;;;;;;;21.10;5.68;;;3.60;89.60;;;;;;5022148;28;20049;-79
2022/01/06 01:59:20;;;;;;;19.33;5.35;;;3.60;89.60;;;;;;5006798;28;20022;-74
2022/01/06 02:01:45;;;;;;;20.83;5.75;;;3.60;89.40;;;;;;5019976;28;20531;-76
2022/01/06 02:04:12;;;;;;;16.88;5.45;;;3.50;89.40;;;;;;5020346;28;20129;-79
2022/01/06 02:06:38;;;;;;;20.17;5.10;;;3.50;89.50;;;;;;5016777;28;20838;-77
2022/01/06 02:09:03;;;;;;;19.40;5.35;;;3.40;89.50;;;;;;5021245;28;20095;-79
2022/01/06 02:11:29;;;;;;;17.17;5.00;;;3.40;89.60;;;;;;5024372;28;20460;-78
2022/01/06 02:13:58;;;;;;;20.08;5.28;;;3.40;89.70;;;;;;5018454;28;20049;-80
2022/01/06 02:16:26;;;;;;;21.08;5.63;;;3.40;89.70;;;;;;5024872;28;20037;-76
2022/01/06 02:18:54;;;;;;;16.52;5.30;;;3.40;89.70;;;;;;5022078;28;20049;-77
2022/01/06 02:21:20;;;;;;;21.30;5.43;;;3.40;89.70;;;;;;5020781;28;20041;-77
2022/01/06 02:23:46;;;;;;;21.98;5.28;;;3.40;89.70;;;;;;5023365;28;20517;-80
2022/01/06 02:26:12;;;;;;;18.98;5.30;;;3.40;89.80;;;;;;5022742;28;20045;-76
2022/01/06 02:28:37;;;;;;;24.55;6.03;;;3.30;89.70;;;;;;5022860;28;20120;-78
2022/01/06 02:31:03;;;;;;;23.27;5.50;;;3.30;89.80;;;;;;5025815;28;20033;-75
2022/01/06 02:33:29;;;;;;;20.10;6.03;;;3.20;89.80;;;;;;5016937;28;20057;-75
2022/01/06 02:35:55;;;;;;;24.20;6.57;;;3.20;89.90;;;;;;5018796;28;20065;-75
2022/01/06 02:38:22;;;;;;;20.50;6.47;;;3.20;89.80;;;;;;5021180;28;20128;-81
2022/01/06 02:40:48;;;;;;;27.85;5.93;;;3.20;89.80;;;;;;5013495;28;20481;-78
2022/01/06 02:43:17;;;;;;;24.20;6.80;;;3.20;89.90;;;;;;5018953;28;20068;-77
2022/01/06 02:45:44;;;;;;;20.15;6.57;;;3.10;90.00;;;;;;5024020;28;20076;-79
2022/01/06 02:48:10;;;;;;;17.95;5.50;;;3.10;90.10;;;;;;5020749;28;20054;-81
2022/01/06 02:50:47;;;;;;;21.83;6.15;;;3.20;90.10;;;;;;5020245;28;20076;-73
2022/01/06 02:53:14;;;;;;;23.95;6.60;;;3.10;90.00;;;;;;5022920;28;20045;-76
2022/01/06 02:55:50;;;;;;;20.15;6.70;;;3.10;90.00;;;;;;5023083;28;20034;-74
2022/01/06 02:58:16;;;;;;;16.88;7.13;;;3.10;90.00;;;;;;5020538;28;20073;-79
2022/01/06 03:00:42;;;;;;;20.38;6.22;;;3.10;90.10;;;;;;5020723;28;20046;-74
2022/01/06 03:03:07;;;;;;;21.60;6.68;;;3.10;90.10;;;;;;5011403;28;20041;-75
2022/01/06 03:05:33;;;;;;;20.35;6.25;;;3.00;90.10;;;;;;5024344;28;20046;-74
2022/01/06 03:07:59;;;;;;;17.63;7.60;;;3.00;90.10;;;;;;5021586;28;20557;-77
2022/01/06 03:10:26;;;;;;;23.20;6.90;;;3.00;90.10;;;;;;5019950;28;20037;-77
2022/01/06 03:12:52;;;;;;;19.17;6.03;;;2.90;90.20;;;;;;5022925;28;20037;-75
2022/01/06 03:15:20;;;;;;;19.40;6.72;;;2.90;90.30;;;;;;5022240;28;20851;-75
2022/01/06 03:17:49;;;;;;;22.27;6.55;;;2.90;90.40;;;;;;5021248;28;20033;-74
2022/01/06 03:20:16;;;;;;;20.35;6.05;;;2.90;90.50;;;;;;5023187;28;20042;-80
2022/01/06 03:22:43;;;;;;;22.77;6.53;;;2.80;90.50;;;;;;5020624;28;20068;-81
2022/01/06 03:25:10;;;;;;;20.55;7.07;;;2.80;90.50;;;;;;5017007;28;20470;-75
2022/01/06 03:27:36;;;;;;;21.63;7.63;;;2.80;90.50;;;;;;5024269;28;20044;-79
2022/01/06 03:30:07;;;;;;;21.58;6.57;;;2.80;90.60;;;;;;5017642;28;20324;-74
2022/01/06 03:32:32;;;;;;;25.70;7.13;;;2.80;90.60;;;;;;5021647;28;22025;-75
2022/01/06 03:34:58;;;;;;;20.00;6.57;;;2.70;90.60;;;;;;5024394;28;20038;-76
2022/01/06 03:37:24;;;;;;;16.40;5.75;;;2.70;90.70;;;;;;5022258;28;20486;-76
2022/01/06 03:39:49;;;;;;;14.45;5.75;;;2.70;90.80;;;;;;5020625;28;20083;-72
2022/01/06 03:42:15;;;;;;;18.83;6.35;;;2.70;90.80;;;;;;5024966;28;20737;-73
2022/01/06 03:44:41;;;;;;;21.85;5.75;;;2.70;90.90;;;;;;5023458;28;20443;-75
2022/01/06 03:47:07;;;;;;;16.60;5.30;;;2.70;90.90;;;;;;5026584;28;20033;-73
2022/01/06 03:49:33;;;;;;;15.23;5.40;;;2.70;90.90;;;;;;5025958;28;20030;-78
2022/01/06 03:51:59;;;;;;;17.38;5.65;;;2.70;90.90;;;;;;5022216;28;20060;-74
2022/01/06 03:54:24;;;;;;;18.13;5.90;;;2.70;90.90;;;;;;5014784;28;20068;-76
2022/01/06 03:56:50;;;;;;;16.73;6.18;;;2.70;91.00;;;;;;5023873;28;20040;-77
2022/01/06 03:59:16;;;;;;;21.38;6.10;;;2.70;91.10;;;;;;5015997;28;20126;-80
2022/01/06 04:01:43;;;;;;;18.17;5.47;;;2.70;91.10;;;;;;5023889;28;20041;-74
2022/01/06 04:04:09;;;;;;;21.13;6.22;;;2.70;91.10;;;;;;5023017;28;20049;-74
2022/01/06 04:06:35;;;;;;;17.45;6.38;;;2.70;91.10;;;;;;5026084;28;20328;-80
2022/01/06 04:09:00;;;;;;;18.73;5.60;;;2.60;91.00;;;;;;5026821;28;20760;-73
2022/01/06 04:11:26;;;;;;;20.40;7.25;;;2.60;91.00;;;;;;5024257;28;20052;-78
2022/01/06 04:13:52;;;;;;;19.67;6.47;;;2.60;91.00;;;;;;5022915;28;20080;-76
2022/01/06 04:16:18;;;;;;;14.88;7.25;;;2.60;91.00;;;;;;5021583;28;20045;-79
2022/01/06 04:18:44;;;;;;;23.50;8.40;;;2.60;91.00;;;;;;5028025;28;20124;-76
2022/01/06 04:21:10;;;;;;;25.98;10.13;;;2.60;91.00;;;;;;5026423;28;20653;-74
2022/01/06 04:23:36;;;;;;;23.50;11.18;;;2.60;91.10;;;;;;5020392;28;20050;-80
2022/01/06 04:26:02;;;;;;;26.02;13.55;;;2.60;91.10;;;;;;5024563;28;20048;-72
2022/01/06 04:28:28;;;;;;;24.10;11.98;;;2.60;91.20;;;;;;5039593;28;20516;-77
2022/01/06 04:30:54;;;;;;;23.45;11.38;;;2.60;91.30;;;;;;5021343;28;20041;-79
2022/01/06 04:33:20;;;;;;;26.27;11.45;;;2.70;91.30;;;;;;5023865;28;20412;-82
2022/01/06 04:35:46;;;;;;;32.55;12.48;;;2.70;91.30;;;;;;5016815;28;20537;-79
2022/01/06 04:38:12;;;;;;;26.35;11.65;;;2.70;91.20;;;;;;5019158;28;20354;-78
2022/01/06 04:40:38;;;;;;;23.80;12.05;;;2.80;91.10;;;;;;5022731;28;20477;-77
2022/01/06 04:43:05;;;;;;;21.67;12.35;;;2.80;91.10;;;;;;5012181;28;20049;-74
2022/01/06 04:45:31;;;;;;;26.05;10.48;;;2.80;91.00;;;;;;5023857;28;20048;-77
2022/01/06 04:47:57;;;;;;;24.20;11.77;;;2.80;90.90;;;;;;5021184;28;20029;-75
2022/01/06 04:50:22;;;;;;;27.48;11.80;;;2.80;90.80;;;;;;5026924;28;20032;-75
2022/01/06 04:52:48;;;;;;;18.38;9.32;;;2.80;90.70;;;;;;5026490;28;20361;-77
2022/01/06 04:55:14;;;;;;;21.92;10.43;;;2.80;90.70;;;;;;5021273;28;20070;-75
2022/01/06 04:57:40;;;;;;;22.10;9.80;;;2.80;90.50;;;;;;5029914;28;20037;-80
2022/01/06 05:00:07;;;;;;;25.02;10.15;;;2.80;90.60;;;;;;5027462;28;20490;-77
2022/01/06 05:02:33;;;;;;;25.10;9.90;;;2.70;90.50;;;;;;5008372;28;20504;-77
2022/01/06 05:04:59;;;;;;;25.48;9.57;;;2.60;90.50;;;;;;5023642;28;20496;-75
2022/01/06 05:07:24;;;;;;;24.77;9.35;;;2.60;90.70;;;;;;5018089;28;20038;-75
2022/01/06 05:09:51;;;;;;;24.88;9.82;;;2.60;90.80;;;;;;5017589;28;20048;-77
2022/01/06 05:12:16;;;;;;;28.65;9.05;;;2.60;90.70;;;;;;5017727;28;20405;-78
2022/01/06 05:14:42;;;;;;;22.45;9.63;;;2.60;90.80;;;;;;5022861;28;20396;-76
2022/01/06 05:17:08;;;;;;;20.73;7.88;;;2.50;90.80;;;;;;5023029;28;20033;-77
2022/01/06 05:19:34;;;;;;;20.20;9.02;;;2.40;90.90;;;;;;5025057;28;20478;-74
2022/01/06 05:22:02;;;;;;;23.23;8.10;;;2.40;91.00;;;;;;5025314;28;20037;-74
2022/01/06 05:24:27;;;;;;;27.63;9.27;;;2.40;91.10;;;;;;5018022;28;20096;-76
2022/01/06 05:26:57;;;;;;;19.52;7.82;;;2.40;91.10;;;;;;5018005;28;20033;-78
2022/01/06 05:29:23;;;;;;;21.30;7.28;;;2.30;91.10;;;;;;5022289;28;20029;-78
2022/01/06 05:31:50;;;;;;;20.85;8.10;;;2.30;91.20;;;;;;5022295;28;20515;-75
2022/01/06 05:34:16;;;;;;;24.30;8.98;;;2.20;91.30;;;;;;5021578;28;20128;-78
2022/01/06 05:36:41;;;;;;;25.38;8.80;;;2.20;91.30;;;;;;5024560;28;20536;-75
2022/01/06 05:39:07;;;;;;;21.65;8.15;;;2.20;91.30;;;;;;5020937;28;20037;-81
2022/01/06 05:41:33;;;;;;;18.38;8.50;;;2.20;91.30;;;;;;5020806;28;20066;-80
2022/01/06 05:43:59;;;;;;;13.93;6.72;;;2.10;91.40;;;;;;5024838;28;20199;-81
2022/01/06 05:46:25;;;;;;;18.67;6.63;;;2.10;91.40;;;;;;5015769;28;20473;-78
2022/01/06 05:48:51;;;;;;;19.90;8.07;;;2.10;91.40;;;;;;5020721;28;20041;-77
2022/01/06 05:51:17;;;;;;;19.42;7.15;;;2.10;91.50;;;;;;5022216;28;20045;-77
2022/01/06 05:53:42;;;;;;;24.55;8.05;;;2.10;91.50;;;;;;5019878;28;20045;-79
2022/01/06 05:56:09;;;;;;;26.58;8.13;;;2.10;91.50;;;;;;5021777;28;20484;-75
2022/01/06 05:58:36;;;;;;;22.95;7.97;;;2.00;91.60;;;;;;5024544;28;20497;-76
2022/01/06 06:01:02;;;;;;;21.55;8.02;;;2.00;91.50;;;;;;5019771;28;20099;-77
2022/01/06 06:03:28;;;;;;;23.17;8.43;;;2.00;91.60;;;;;;5023450;28;20050;-78
2022/01/06 06:05:55;;;;;;;19.55;8.48;;;2.00;91.60;;;;;;5026993;28;20036;-87
2022/01/06 06:08:21;;;;;;;25.30;8.93;;;2.00;91.60;;;;;;5025080;28;20060;-79
2022/01/06 06:10:47;;;;;;;22.85;8.45;;;2.00;91.70;;;;;;5023992;28;20489;-75
2022/01/06 06:13:13;;;;;;;22.10;8.85;;;2.00;91.70;;;;;;5011561;28;20353;-79
2022/01/06 06:15:38;;;;;;;21.73;8.52;;;2.00;91.70;;;;;;5021775;28;20516;-76
2022/01/06 06:18:06;;;;;;;25.15;9.55;;;2.00;91.80;;;;;;5017997;28;20061;-74
2022/01/06 06:20:32;;;;;;;21.73;9.45;;;2.00;91.80;;;;;;5025046;28;20112;-78
2022/01/06 06:22:58;;;;;;;22.38;10.05;;;2.00;91.80;;;;;;5023820;28;20485;-76
2022/01/06 06:25:24;;;;;;;23.83;9.27;;;2.00;91.80;;;;;;5022984;28;20036;-78
2022/01/06 06:27:50;;;;;;;21.50;9.27;;;2.10;91.90;;;;;;5023194;28;20056;-74
2022/01/06 06:30:16;;;;;;;23.98;8.50;;;2.10;91.90;;;;;;5022750;28;20080;-77
2022/01/06 06:32:41;;;;;;;24.38;8.75;;;2.10;91.90;;;;;;5024984;28;20061;-78
2022/01/06 06:35:08;;;;;;;19.20;8.98;;;2.10;91.90;;;;;;5023577;28;20400;-76
2022/01/06 06:37:33;;;;;;;27.70;10.27;;;2.10;92.00;;;;;;5023478;28;20044;-74
2022/01/06 06:39:59;;;;;;;23.52;8.82;;;2.10;91.90;;;;;;5017510;28;20033;-76
2022/01/06 06:42:26;;;;;;;26.15;10.43;;;2.10;91.90;;;;;;5024559;28;20444;-77
2022/01/06 06:44:52;;;;;;;21.63;9.27;;;2.00;91.90;;;;;;5020968;28;20444;-74
2022/01/06 06:47:18;;;;;;;21.90;9.35;;;2.00;91.90;;;;;;5020449;28;20043;-76
2022/01/06 06:49:43;;;;;;;26.88;10.25;;;2.00;92.00;;;;;;5021537;28;20037;-77
2022/01/06 06:52:09;;;;;;;24.67;9.32;;;2.10;92.00;;;;;;5023003;28;20041;-78
2022/01/06 06:54:35;;;;;;;22.13;9.32;;;2.00;92.00;;;;;;5025469;28;20052;-76
2022/01/06 06:57:01;;;;;;;24.02;9.57;;;2.00;92.00;;;;;;5022990;28;20041;-74
2022/01/06 06:59:26;;;;;;;27.85;10.90;;;2.00;92.00;;;;;;5024328;28;20057;-78
2022/01/06 07:01:52;;;;;;;25.77;11.95;;;2.00;91.90;;;;;;5026065;28;20449;-74
2022/01/06 07:04:18;;;;;;;23.88;10.88;;;2.00;91.90;;;;;;5025557;28;20049;-76
2022/01/06 07:06:44;;;;;;;26.48;12.45;;;2.00;92.00;;;;;;5017733;28;20049;-74
2022/01/06 07:09:09;;;;;;;23.98;12.20;;;2.00;92.00;;;;;;5023558;28;20042;-79
2022/01/06 07:11:35;;;;;;;23.38;11.98;;;2.00;92.00;;;;;;5020250;28;20431;-73
2022/01/06 07:14:01;;;;;;;31.63;14.60;;;1.90;92.00;;;;;;5017745;28;20056;-74
2022/01/06 07:16:26;;;;;;;39.70;15.57;;;1.90;92.00;;;;;;5020710;28;20397;-73
2022/01/06 07:18:52;;;;;;;42.22;15.50;;;1.90;92.00;;;;;;5029386;28;20380;-75
2022/01/06 07:21:18;;;;;;;35.35;14.88;;;1.80;91.90;;;;;;5023918;28;20058;-75
2022/01/06 07:23:43;;;;;;;40.95;18.85;;;1.80;92.00;;;;;;5028779;28;20453;-76
2022/01/06 07:26:09;;;;;;;47.13;22.77;;;1.80;92.00;;;;;;5025724;28;20038;-77
2022/01/06 07:28:35;;;;;;;32.38;14.55;;;1.80;91.90;;;;;;5030137;28;20040;-72
2022/01/06 07:31:00;;;;;;;34.92;15.15;;;1.80;92.00;;;;;;5027644;28;20056;-72
2022/01/06 07:33:26;;;;;;;32.35;15.63;;;1.80;91.90;;;;;;5020661;28;20081;-72
2022/01/06 07:35:52;;;;;;;38.65;19.08;;;1.80;91.90;;;;;;5029465;28;20040;-73
2022/01/06 07:38:18;;;;;;;46.42;19.10;;;1.80;92.00;;;;;;5019441;28;20053;-76
2022/01/06 07:40:44;;;;;;;34.53;18.08;;;1.80;92.00;;;;;;5018573;28;20084;-76
2022/01/06 07:43:10;;;;;;;40.10;19.15;;;1.70;92.00;;;;;;5014625;28;20150;-73
2022/01/06 07:45:36;;;;;;;38.58;19.48;;;1.70;92.00;;;;;;5010147;28;20037;-73
2022/01/06 07:48:04;;;;;;;34.25;17.42;;;1.70;92.00;;;;;;5008374;28;20045;-74
2022/01/06 07:50:33;;;;;;;37.05;16.60;;;1.70;92.00;;;;;;5029767;28;20045;-78
2022/01/06 07:52:59;;;;;;;40.17;19.88;;;1.70;92.10;;;;;;5015616;28;20341;-74
2022/01/06 07:55:26;;;;;;;35.38;18.35;;;1.70;92.10;;;;;;5021658;28;20036;-76
2022/01/06 07:57:52;;;;;;;30.30;15.40;;;1.70;92.10;;;;;;5022122;28;20041;-76
2022/01/06 08:00:22;;;;;;;28.20;12.90;;;1.70;92.10;;;;;;5025810;28;20137;-75
2022/01/06 08:02:48;;;;;;;27.98;13.82;;;1.70;92.20;;;;;;5020834;28;20127;-78
2022/01/06 08:05:15;;;;;;;26.17;13.50;;;1.70;92.30;;;;;;5026690;28;20354;-73
2022/01/06 08:07:41;;;;;;;44.45;19.45;;;1.70;92.20;;;;;;5022931;28;20061;-76
2022/01/06 08:10:08;;;;;;;33.38;18.70;;;1.70;92.20;;;;;;5021981;28;20034;-76
2022/01/06 08:12:35;;;;;;;41.72;23.75;;;1.70;92.20;;;;;;5025281;28;20071;-74
2022/01/06 08:15:01;;;;;;;51.05;27.95;;;1.70;92.20;;;;;;5023909;28;20171;-74
2022/01/06 08:17:27;;;;;;;36.42;18.63;;;1.70;92.30;;;;;;5021155;28;20502;-75
2022/01/06 08:19:52;;;;;;;28.05;13.13;;;1.70;92.20;;;;;;5026877;28;20128;-75
2022/01/06 08:22:19;;;;;;;26.88;11.52;;;1.80;92.20;;;;;;5025318;28;20042;-78
2022/01/06 08:24:45;;;;;;;26.48;11.98;;;1.80;92.20;;;;;;5030259;28;20029;-78
2022/01/06 08:27:10;;;;;;;22.85;12.80;;;1.80;92.20;;;;;;5024526;28;20458;-73
2022/01/06 08:29:40;;;;;;;26.90;14.75;;;1.80;92.10;;;;;;5022967;28;20072;-73
2022/01/06 08:32:07;;;;;;;27.05;15.35;;;1.80;92.10;;;;;;5017117;28;20034;-78
2022/01/06 08:34:34;;;;;;;34.55;15.43;;;1.80;92.10;;;;;;5017916;28;20497;-81
2022/01/06 08:37:00;;;;;;;35.97;17.63;;;1.80;92.10;;;;;;5018883;28;20038;-77
2022/01/06 08:39:26;;;;;;;31.67;17.45;;;1.90;92.20;;;;;;5019360;28;20087;-74
2022/01/06 08:41:53;;;;;;;29.20;19.00;;;1.90;92.10;;;;;;5017943;28;20044;-74
2022/01/06 08:44:20;;;;;;;37.40;22.33;;;1.90;92.10;;;;;;5019953;28;20025;-76
2022/01/06 08:46:47;;;;;;;25.85;19.08;;;2.00;92.20;;;;;;5027321;28;20029;-73
2022/01/06 08:49:13;;;;;;;29.35;15.55;;;2.10;92.10;;;;;;5035454;28;20392;-74
2022/01/06 08:51:39;;;;;;;28.33;13.43;;;2.20;92.00;;;;;;5014605;28;20037;-73
2022/01/06 08:54:06;;;;;;;26.48;13.77;;;2.20;92.00;;;;;;5018034;28;20067;-76
2022/01/06 08:56:33;;;;;;;24.20;12.48;;;2.40;92.00;;;;;;5015441;28;20083;-75
2022/01/06 08:58:58;;;;;;;33.00;13.27;;;2.50;91.90;;;;;;5010753;28;20588;-75
2022/01/06 09:01:24;;;;;;;28.58;12.57;;;2.60;91.80;;;;;;5008220;28;20041;-75
2022/01/06 09:03:50;;;;;;;27.90;11.52;;;2.70;91.60;;;;;;5006038;28;20493;-75
2022/01/06 09:06:16;;;;;;;24.15;10.70;;;2.80;91.50;;;;;;5011995;28;20573;-75
2022/01/06 09:08:42;;;;;;;22.88;10.10;;;2.90;91.30;;;;;;5010875;28;20041;-76
2022/01/06 09:11:07;;;;;;;26.13;11.25;;;3.00;91.30;;;;;;5007185;28;20473;-78
2022/01/06 09:13:33;;;;;;;29.10;11.30;;;3.10;91.10;;;;;;5015989;28;20467;-78
2022/01/06 09:15:58;;;;;;;24.00;10.82;;;3.20;90.90;;;;;;5027148;28;20905;-76
2022/01/06 09:18:24;;;;;;;28.38;12.40;;;3.20;90.80;;;;;;5016751;28;20116;-75
2022/01/06 09:20:50;;;;;;;23.95;12.02;;;3.40;90.80;;;;;;5019117;28;20464;-77
2022/01/06 09:23:15;;;;;;;30.23;11.52;;;3.50;90.40;;;;;;5010999;28;20164;-78
2022/01/06 09:25:41;;;;;;;24.30;11.13;;;3.60;90.30;;;;;;5022288;28;20474;-77
2022/01/06 09:28:07;;;;;;;25.15;10.85;;;3.70;90.00;;;;;;5010693;28;20147;-80
2022/01/06 09:30:32;;;;;;;22.83;10.65;;;3.80;89.60;;;;;;5013825;28;20156;-77
2022/01/06 09:32:58;;;;;;;24.85;11.23;;;3.90;89.50;;;;;;5010801;28;20496;-78
2022/01/06 09:35:24;;;;;;;23.38;11.20;;;4.10;89.20;;;;;;5012252;28;20042;-76
2022/01/06 09:37:49;;;;;;;29.45;11.68;;;4.10;88.80;;;;;;5007658;28;20120;-75
2022/01/06 09:40:15;;;;;;;25.63;11.50;;;4.20;88.80;;;;;;5013732;28;20366;-77
2022/01/06 09:42:42;;;;;;;22.63;10.85;;;4.40;88.50;;;;;;5008431;28;20030;-73
2022/01/06 09:45:09;;;;;;;26.10;11.00;;;4.50;88.40;;;;;;5013292;28;20656;-74
2022/01/06 09:47:36;;;;;;;24.90;10.80;;;4.60;87.90;;;;;;5010909;28;20041;-76
2022/01/06 09:50:03;;;;;;;28.73;13.10;;;4.70;87.50;;;;;;5016955;28;20042;-76
2022/01/06 09:52:28;;;;;;;23.85;11.90;;;4.80;87.40;;;;;;5012767;28;20492;-76
2022/01/06 09:54:54;;;;;;;20.55;12.20;;;5.00;87.10;;;;;;5010392;28;20049;-78
2022/01/06 09:57:20;;;;;;;26.85;12.57;;;5.10;86.60;;;;;;5020067;28;20410;-75
2022/01/06 09:59:45;;;;;;;25.30;11.30;;;5.20;86.40;;;;;;5019395;28;20493;-76
2022/01/06 10:02:16;;;;;;;23.40;10.57;;;5.20;86.00;;;;;;5007882;28;20072;-76
2022/01/06 10:04:43;;;;;;;26.50;11.40;;;5.30;85.90;;;;;;5034425;28;20804;-75
2022/01/06 10:07:10;;;;;;;19.20;9.98;;;5.40;85.40;;;;;;5015877;28;20672;-76
2022/01/06 10:09:39;;;;;;;27.27;11.48;;;5.40;85.60;;;;;;5020687;28;20033;-76
2022/01/06 10:12:10;;;;;;;21.10;11.07;;;5.50;85.50;;;;;;5016723;28;20114;-76
2022/01/06 10:14:45;;;;;;;26.95;12.07;;;5.60;85.20;;;;;;5016140;28;20533;-77
2022/01/06 10:17:16;;;;;;;21.73;10.85;;;5.70;84.90;;;;;;5015659;28;20036;-77
2022/01/06 10:19:46;;;;;;;23.33;9.88;;;5.80;84.40;;;;;;5014633;28;20034;-77
2022/01/06 10:22:19;;;;;;;20.60;9.73;;;6.00;84.20;;;;;;5013267;28;20555;-76
2022/01/06 10:24:47;;;;;;;21.33;10.80;;;6.10;83.80;;;;;;5013642;28;20471;-77
2022/01/06 10:27:19;;;;;;;22.40;9.32;;;6.10;83.40;;;;;;5004651;28;20349;-75
2022/01/06 10:29:49;;;;;;;27.55;10.35;;;6.10;83.40;;;;;;5016519;28;20172;-76
2022/01/06 10:32:19;;;;;;;22.75;9.68;;;6.20;83.10;;;;;;5032421;28;20080;-78
2022/01/06 10:34:50;;;;;;;21.02;10.80;;;6.30;83.10;;;;;;5020014;28;20052;-77
2022/01/06 10:37:24;;;;;;;20.30;9.93;;;6.30;82.70;;;;;;5018459;28;20112;-76
2022/01/06 10:39:53;;;;;;;23.85;10.27;;;6.30;83.10;;;;;;5020772;28;20314;-77
2022/01/06 10:42:24;;;;;;;20.90;10.63;;;6.40;82.80;;;;;;5020157;28;20082;-75
2022/01/06 10:44:58;;;;;;;25.02;10.63;;;6.50;82.90;;;;;;5015034;28;20559;-75
2022/01/06 10:47:30;;;;;;;18.98;9.75;;;6.60;82.10;;;;;;5010593;28;20118;-75
2022/01/06 10:50:21;;;;;;;20.63;9.63;;;6.60;82.00;;;;;;5009573;28;20162;-75
2022/01/06 10:52:58;;;;;;;20.75;10.27;;;6.60;81.90;;;;;;5012153;28;20042;-76
2022/01/06 10:55:30;;;;;;;19.35;9.00;;;6.60;81.60;;;;;;5021011;28;20076;-75
2022/01/06 10:58:07;;;;;;;22.25;9.40;;;6.70;81.90;;;;;;5013937;28;20038;-76
2022/01/06 11:00:42;;;;;;;19.83;9.30;;;6.80;81.80;;;;;;5014170;28;20072;-75
2022/01/06 11:03:09;;;;;;;;;;;6.80;81.20;;;;;;5013222;28;20116;-75
2022/01/06 11:05:37;;;;;;;19.05;7.65;;;6.80;81.70;;;;;;5020876;28;20418;-75
2022/01/06 11:08:07;;;;;;;21.85;8.40;;;6.80;81.60;;;;;;5015932;28;20188;-75
2022/01/06 11:10:39;;;;;;;22.60;8.65;;;6.90;81.20;;;;;;5020110;28;20041;-74
2022/01/06 11:13:05;;;;;;;19.50;8.13;;;6.90;80.50;;;;;;5020954;28;20099;-74
2022/01/06 11:15:31;;;;;;;20.17;7.90;;;6.80;79.90;;;;;;5004828;28;20069;-74
2022/01/06 11:18:00;;;;;;;13.80;7.47;;;6.80;79.80;;;;;;5014502;28;20149;-76
2022/01/06 11:20:27;;;;;;;23.60;7.90;;;6.80;79.90;;;;;;5014668;28;20107;-73
2022/01/06 11:22:55;;;;;;;17.30;7.45;;;6.80;79.60;;;;;;5014573;28;20034;-76
2022/01/06 11:25:35;;;;;;;20.48;7.90;;;6.90;79.50;;;;;;5035615;28;20811;-76
2022/01/06 11:28:12;;;;;;;24.35;8.50;;;6.90;79.10;;;;;;5016572;28;20131;-76
2022/01/06 11:30:48;;;;;;;16.48;6.90;;;6.90;78.40;;;;;;5010523;28;20038;-74
2022/01/06 11:33:15;;;;;;;21.15;7.28;;;7.00;78.20;;;;;;5006460;28;20088;-75
2022/01/06 11:35:55;;;;;;;20.60;7.20;;;6.90;78.60;;;;;;5007921;28;20379;-76
2022/01/06 11:38:26;;;;;;;18.73;8.05;;;7.00;78.30;;;;;;5020073;28;20063;-75
2022/01/06 11:41:07;;;;;;;18.35;7.63;;;7.10;78.00;;;;;;5010313;28;20397;-73
2022/01/06 11:43:37;;;;;;;22.80;8.32;;;7.10;77.70;;;;;;5008195;28;20091;-74
2022/01/06 11:46:03;;;;;;;17.85;7.10;;;7.10;77.80;;;;;;5009871;28;20053;-72
2022/01/06 11:48:29;;;;;;;17.67;6.90;;;7.10;77.50;;;;;;5010645;28;20050;-72
2022/01/06 11:50:54;;;;;;;18.55;6.88;;;6.90;77.70;;;;;;5021669;28;20082;-74
2022/01/06 11:53:33;;;;;;;19.88;7.05;;;6.90;77.40;;;;;;5008205;28;20470;-73
2022/01/06 11:56:11;;;;;;;17.23;6.20;;;6.80;78.80;;;;;;5018094;28;20034;-76
2022/01/06 11:58:37;;;;;;;15.88;7.18;;;6.90;77.50;;;;;;5003418;28;20046;-73
2022/01/06 12:01:05;;;;;;;19.42;6.93;;;7.10;76.70;;;;;;5004659;28;20153;-75
2022/01/06 12:03:42;;;;;;;17.15;6.20;;;7.10;77.40;;;;;;5005108;28;20075;-72
2022/01/06 12:06:20;;;;;;;20.60;6.15;;;7.20;76.70;;;;;;5003351;28;20046;-74
2022/01/06 12:08:46;;;;;;;17.67;6.68;;;6.90;76.20;;;;;;5005680;28;20067;-72
2022/01/06 12:11:33;;;;;;;23.13;6.82;;;7.00;77.00;;;;;;5003792;28;20034;-74
2022/01/06 12:13:59;;;;;;;19.80;6.45;;;7.00;76.00;;;;;;5008322;28;20050;-73
2022/01/06 12:16:31;;;;;;;20.58;5.50;;;7.10;75.20;;;;;;5018855;28;20037;-72
2022/01/06 12:18:58;;;;;;;18.80;6.18;;;7.10;75.60;;;;;;5005706;28;20453;-73
2022/01/06 12:21:24;;;;;;;19.52;6.55;;;7.10;75.60;;;;;;5010358;28;20107;-72
2022/01/06 12:24:05;;;;;;;17.98;6.60;;;7.20;75.30;;;;;;5008650;28;20085;-73
2022/01/06 12:26:32;;;;;;;18.15;6.63;;;7.30;75.20;;;;;;5005422;28;20077;-73
2022/01/06 12:28:57;;;;;;;19.92;6.80;;;7.30;74.50;;;;;;5005235;28;20041;-74
2022/01/06 12:31:28;;;;;;;20.80;6.75;;;7.40;75.00;;;;;;5009688;28;20515;-73
2022/01/06 12:33:59;;;;;;;23.42;6.93;;;7.30;74.60;;;;;;5016567;28;20049;-77
2022/01/06 12:36:26;;;;;;;25.13;7.10;;;7.30;74.80;;;;;;5016391;28;20034;-76
2022/01/06 12:38:52;;;;;;;19.70;6.65;;;7.30;74.70;;;;;;5015705;28;20576;-76
2022/01/06 12:41:29;;;;;;;21.77;6.45;;;7.40;74.10;;;;;;5020655;28;20134;-75
2022/01/06 12:43:57;;;;;;;21.45;6.78;;;7.40;74.40;;;;;;5013191;28;20041;-76
2022/01/06 12:46:29;;;;;;;19.17;5.97;;;7.40;74.00;;;;;;5014905;28;20036;-75
2022/01/06 12:48:55;;;;;;;18.67;5.50;;;7.50;73.90;;;;;;5027925;28;20049;-76
2022/01/06 12:51:21;;;;;;;18.10;6.63;;;7.40;74.10;;;;;;5009681;28;21020;-75